sensor_id;sensor_type;location;lat;lon;timestamp;P1;durP1;ratioP1;P2;durP2;ratioP2
65461;SDS011;53236;43.666;18.444;2023-10-09T00:02:05;20.73;;;8.73;;
65461;SDS011;53236;43.666;18.444;2023-10-09T00:04:37;17.53;;;7.77;;
65461;SDS011;53236;43.666;18.444;2023-10-09T00:07:06;24.13;;;8.93;;
65461;SDS011;53236;43.666;18.444;2023-10-09T00:09:34;18.57;;;8.47;;
65461;SDS011;53236;43.666;18.444;2023-10-09T00:12:12;18.40;;;8.70;;
65461;SDS011;53236;43.666;18.444;2023-10-09T00:14:42;20.63;;;9.10;;
65461;SDS011;53236;43.666;18.444;2023-10-09T00:17:13;20.10;;;8.10;;
65461;SDS011;53236;43.666;18.444;2023-10-09T00:19:40;14.10;;;7.87;;
65461;SDS011;53236;43.666;18.444;2023-10-09T00:22:09;18.27;;;7.87;;
65461;SDS011;53236;43.666;18.444;2023-10-09T00:24:54;15.97;;;7.90;;
65461;SDS011;53236;43.666;18.444;2023-10-09T00:27:39;20.10;;;8.53;;
65461;SDS011;53236;43.666;18.444;2023-10-09T00:30:10;18.23;;;8.63;;
65461;SDS011;53236;43.666;18.444;2023-10-09T00:32:43;21.70;;;8.77;;
65461;SDS011;53236;43.666;18.444;2023-10-09T00:35:26;17.40;;;7.87;;
65461;SDS011;53236;43.666;18.444;2023-10-09T00:38:05;17.73;;;8.18;;
65461;SDS011;53236;43.666;18.444;2023-10-09T00:40:52;16.23;;;7.87;;
65461;SDS011;53236;43.666;18.444;2023-10-09T00:43:27;14.65;;;7.60;;
65461;SDS011;53236;43.666;18.444;2023-10-09T00:45:54;19.37;;;7.90;;
65461;SDS011;53236;43.666;18.444;2023-10-09T00:48:21;14.37;;;8.30;;
65461;SDS011;53236;43.666;18.444;2023-10-09T00:50:57;11.97;;;7.03;;
65461;SDS011;53236;43.666;18.444;2023-10-09T00:53:25;18.53;;;8.37;;
65461;SDS011;53236;43.666;18.444;2023-10-09T00:55:59;19.17;;;8.70;;
65461;SDS011;53236;43.666;18.444;2023-10-09T00:58:44;19.30;;;7.73;;
65461;SDS011;53236;43.666;18.444;2023-10-09T01:01:20;18.43;;;7.73;;
65461;SDS011;53236;43.666;18.444;2023-10-09T01:03:53;17.37;;;8.13;;
65461;SDS011;53236;43.666;18.444;2023-10-09T01:06:19;25.63;;;9.63;;
65461;SDS011;53236;43.666;18.444;2023-10-09T01:08:58;19.83;;;10.43;;
65461;SDS011;53236;43.666;18.444;2023-10-09T01:11:36;21.43;;;10.57;;
65461;SDS011;53236;43.666;18.444;2023-10-09T01:14:28;23.73;;;9.73;;
65461;SDS011;53236;43.666;18.444;2023-10-09T01:16:56;19.27;;;9.47;;
65461;SDS011;53236;43.666;18.444;2023-10-09T01:19:22;19.73;;;9.17;;
65461;SDS011;53236;43.666;18.444;2023-10-09T01:21:55;17.50;;;9.23;;
65461;SDS011;53236;43.666;18.444;2023-10-09T01:24:29;19.33;;;10.10;;
65461;SDS011;53236;43.666;18.444;2023-10-09T01:27:00;18.67;;;10.03;;
65461;SDS011;53236;43.666;18.444;2023-10-09T01:29:30;19.43;;;9.10;;
65461;SDS011;53236;43.666;18.444;2023-10-09T01:31:56;18.87;;;9.63;;
65461;SDS011;53236;43.666;18.444;2023-10-09T01:34:32;23.42;;;9.05;;
65461;SDS011;53236;43.666;18.444;2023-10-09T01:37:14;21.23;;;8.50;;
65461;SDS011;53236;43.666;18.444;2023-10-09T01:39:47;12.10;;;7.10;;
65461;SDS011;53236;43.666;18.444;2023-10-09T01:42:45;17.97;;;8.90;;
65461;SDS011;53236;43.666;18.444;2023-10-09T01:45:11;19.53;;;8.60;;
65461;SDS011;53236;43.666;18.444;2023-10-09T01:47:40;16.27;;;8.83;;
65461;SDS011;53236;43.666;18.444;2023-10-09T01:50:11;20.23;;;8.03;;
65461;SDS011;53236;43.666;18.444;2023-10-09T01:52:43;18.10;;;9.37;;
65461;SDS011;53236;43.666;18.444;2023-10-09T01:55:09;20.60;;;10.07;;
65461;SDS011;53236;43.666;18.444;2023-10-09T01:57:54;17.43;;;9.80;;
65461;SDS011;53236;43.666;18.444;2023-10-09T02:00:23;23.80;;;10.83;;
65461;SDS011;53236;43.666;18.444;2023-10-09T02:02:54;21.23;;;10.37;;
65461;SDS011;53236;43.666;18.444;2023-10-09T02:05:20;22.27;;;10.30;;
65461;SDS011;53236;43.666;18.444;2023-10-09T02:07:45;24.13;;;9.97;;
65461;SDS011;53236;43.666;18.444;2023-10-09T02:10:23;17.83;;;9.80;;
65461;SDS011;53236;43.666;18.444;2023-10-09T02:12:49;17.53;;;9.40;;
65461;SDS011;53236;43.666;18.444;2023-10-09T02:15:28;19.83;;;9.13;;
65461;SDS011;53236;43.666;18.444;2023-10-09T02:20:50;18.57;;;7.83;;
65461;SDS011;53236;43.666;18.444;2023-10-09T02:25:56;14.13;;;7.50;;
65461;SDS011;53236;43.666;18.444;2023-10-09T02:28:22;15.40;;;7.57;;
65461;SDS011;53236;43.666;18.444;2023-10-09T02:30:48;16.87;;;7.17;;
65461;SDS011;53236;43.666;18.444;2023-10-09T02:33:15;14.00;;;6.67;;
65461;SDS011;53236;43.666;18.444;2023-10-09T02:35:53;12.30;;;6.20;;
65461;SDS011;53236;43.666;18.444;2023-10-09T02:38:20;15.73;;;6.23;;
65461;SDS011;53236;43.666;18.444;2023-10-09T02:40:51;16.17;;;6.67;;
65461;SDS011;53236;43.666;18.444;2023-10-09T02:43:45;13.07;;;5.40;;
65461;SDS011;53236;43.666;18.444;2023-10-09T02:46:13;10.67;;;5.30;;
65461;SDS011;53236;43.666;18.444;2023-10-09T02:48:43;12.87;;;6.03;;
65461;SDS011;53236;43.666;18.444;2023-10-09T02:51:18;11.57;;;5.33;;
65461;SDS011;53236;43.666;18.444;2023-10-09T02:53:54;11.70;;;5.70;;
65461;SDS011;53236;43.666;18.444;2023-10-09T02:56:22;11.83;;;5.30;;
65461;SDS011;53236;43.666;18.444;2023-10-09T02:59:18;10.63;;;5.67;;
65461;SDS011;53236;43.666;18.444;2023-10-09T03:01:46;13.30;;;6.00;;
65461;SDS011;53236;43.666;18.444;2023-10-09T03:04:13;13.40;;;5.60;;
65461;SDS011;53236;43.666;18.444;2023-10-09T03:06:40;9.00;;;5.20;;
65461;SDS011;53236;43.666;18.444;2023-10-09T03:09:24;11.43;;;6.50;;
65461;SDS011;53236;43.666;18.444;2023-10-09T03:12:00;12.63;;;6.63;;
65461;SDS011;53236;43.666;18.444;2023-10-09T03:14:28;12.97;;;6.57;;
65461;SDS011;53236;43.666;18.444;2023-10-09T03:17:00;9.53;;;5.90;;
65461;SDS011;53236;43.666;18.444;2023-10-09T03:19:29;11.80;;;5.80;;
65461;SDS011;53236;43.666;18.444;2023-10-09T03:22:02;12.98;;;6.95;;
65461;SDS011;53236;43.666;18.444;2023-10-09T03:24:29;13.63;;;6.10;;
65461;SDS011;53236;43.666;18.444;2023-10-09T03:26:56;16.50;;;6.13;;
65461;SDS011;53236;43.666;18.444;2023-10-09T03:29:22;11.57;;;6.37;;
65461;SDS011;53236;43.666;18.444;2023-10-09T03:31:48;13.87;;;6.43;;
65461;SDS011;53236;43.666;18.444;2023-10-09T03:34:16;9.43;;;5.43;;
65461;SDS011;53236;43.666;18.444;2023-10-09T03:36:43;17.43;;;6.73;;
65461;SDS011;53236;43.666;18.444;2023-10-09T03:39:10;10.53;;;6.03;;
65461;SDS011;53236;43.666;18.444;2023-10-09T03:41:55;11.07;;;6.30;;
65461;SDS011;53236;43.666;18.444;2023-10-09T03:44:23;15.00;;;7.13;;
65461;SDS011;53236;43.666;18.444;2023-10-09T03:46:53;16.97;;;7.30;;
65461;SDS011;53236;43.666;18.444;2023-10-09T03:49:19;15.33;;;7.67;;
65461;SDS011;53236;43.666;18.444;2023-10-09T03:51:52;14.73;;;7.47;;
65461;SDS011;53236;43.666;18.444;2023-10-09T03:54:18;19.13;;;7.20;;
65461;SDS011;53236;43.666;18.444;2023-10-09T03:56:48;19.27;;;7.53;;
65461;SDS011;53236;43.666;18.444;2023-10-09T03:59:20;15.30;;;7.90;;
65461;SDS011;53236;43.666;18.444;2023-10-09T04:01:46;19.97;;;8.53;;
65461;SDS011;53236;43.666;18.444;2023-10-09T04:04:15;18.20;;;8.40;;
65461;SDS011;53236;43.666;18.444;2023-10-09T04:06:42;16.57;;;8.93;;
65461;SDS011;53236;43.666;18.444;2023-10-09T04:09:09;38.93;;;9.17;;
65461;SDS011;53236;43.666;18.444;2023-10-09T04:11:48;16.73;;;8.10;;
65461;SDS011;53236;43.666;18.444;2023-10-09T04:14:39;14.33;;;7.80;;
65461;SDS011;53236;43.666;18.444;2023-10-09T04:17:13;27.00;;;9.50;;
65461;SDS011;53236;43.666;18.444;2023-10-09T04:19:48;67.90;;;9.07;;
65461;SDS011;53236;43.666;18.444;2023-10-09T04:25:21;24.13;;;8.00;;
65461;SDS011;53236;43.666;18.444;2023-10-09T04:27:59;30.93;;;8.93;;
65461;SDS011;53236;43.666;18.444;2023-10-09T04:30:37;19.80;;;6.33;;
65461;SDS011;53236;43.666;18.444;2023-10-09T04:33:14;19.83;;;6.97;;
65461;SDS011;53236;43.666;18.444;2023-10-09T04:36:09;24.80;;;7.63;;
65461;SDS011;53236;43.666;18.444;2023-10-09T04:38:44;84.83;;;11.47;;
65461;SDS011;53236;43.666;18.444;2023-10-09T04:41:28;27.87;;;10.60;;
65461;SDS011;53236;43.666;18.444;2023-10-09T04:43:59;30.00;;;8.73;;
65461;SDS011;53236;43.666;18.444;2023-10-09T04:46:44;31.77;;;10.37;;
65461;SDS011;53236;43.666;18.444;2023-10-09T04:49:31;39.80;;;11.50;;
65461;SDS011;53236;43.666;18.444;2023-10-09T04:52:11;51.67;;;9.53;;
65461;SDS011;53236;43.666;18.444;2023-10-09T04:54:57;48.53;;;7.70;;
65461;SDS011;53236;43.666;18.444;2023-10-09T04:57:35;28.00;;;6.55;;
65461;SDS011;53236;43.666;18.444;2023-10-09T05:00:24;26.60;;;10.13;;
65461;SDS011;53236;43.666;18.444;2023-10-09T05:02:50;30.57;;;10.63;;
65461;SDS011;53236;43.666;18.444;2023-10-09T05:05:24;45.03;;;14.53;;
65461;SDS011;53236;43.666;18.444;2023-10-09T05:08:13;26.70;;;10.13;;
65461;SDS011;53236;43.666;18.444;2023-10-09T05:10:53;28.20;;;13.57;;
65461;SDS011;53236;43.666;18.444;2023-10-09T05:13:40;40.40;;;15.10;;
65461;SDS011;53236;43.666;18.444;2023-10-09T05:16:07;47.63;;;14.30;;
65461;SDS011;53236;43.666;18.444;2023-10-09T05:18:58;91.60;;;37.03;;
65461;SDS011;53236;43.666;18.444;2023-10-09T05:21:35;83.07;;;28.30;;
65461;SDS011;53236;43.666;18.444;2023-10-09T05:24:09;42.23;;;7.80;;
65461;SDS011;53236;43.666;18.444;2023-10-09T05:26:43;80.10;;;16.07;;
65461;SDS011;53236;43.666;18.444;2023-10-09T05:29:16;43.73;;;10.33;;
65461;SDS011;53236;43.666;18.444;2023-10-09T05:31:59;19.87;;;6.23;;
65461;SDS011;53236;43.666;18.444;2023-10-09T05:34:38;12.37;;;5.43;;
65461;SDS011;53236;43.666;18.444;2023-10-09T05:37:25;23.40;;;6.37;;
65461;SDS011;53236;43.666;18.444;2023-10-09T05:39:58;98.43;;;37.57;;
65461;SDS011;53236;43.666;18.444;2023-10-09T05:42:25;47.90;;;11.33;;
65461;SDS011;53236;43.666;18.444;2023-10-09T05:45:13;47.13;;;9.57;;
65461;SDS011;53236;43.666;18.444;2023-10-09T05:47:45;50.53;;;9.10;;
65461;SDS011;53236;43.666;18.444;2023-10-09T05:50:30;38.27;;;14.57;;
65461;SDS011;53236;43.666;18.444;2023-10-09T05:53:00;100.63;;;13.97;;
65461;SDS011;53236;43.666;18.444;2023-10-09T06:11:23;21.02;;;6.75;;
65461;SDS011;53236;43.666;18.444;2023-10-09T06:14:15;22.27;;;7.13;;
65461;SDS011;53236;43.666;18.444;2023-10-09T06:17:10;36.13;;;7.87;;
65461;SDS011;53236;43.666;18.444;2023-10-09T06:19:37;15.45;;;6.72;;
65461;SDS011;53236;43.666;18.444;2023-10-09T06:22:09;12.55;;;5.70;;
65461;SDS011;53236;43.666;18.444;2023-10-09T06:24:54;7.35;;;4.90;;
65461;SDS011;53236;43.666;18.444;2023-10-09T06:27:20;9.23;;;6.15;;
65461;SDS011;53236;43.666;18.444;2023-10-09T06:30:08;10.82;;;6.70;;
65461;SDS011;53236;43.666;18.444;2023-10-09T06:32:49;10.82;;;6.25;;
65461;SDS011;53236;43.666;18.444;2023-10-09T06:35:27;8.95;;;5.38;;
65461;SDS011;53236;43.666;18.444;2023-10-09T06:37:57;6.13;;;4.32;;
65461;SDS011;53236;43.666;18.444;2023-10-09T06:40:27;7.25;;;3.42;;
65461;SDS011;53236;43.666;18.444;2023-10-09T06:45:35;9.32;;;3.92;;
65461;SDS011;53236;43.666;18.444;2023-10-09T06:48:10;4.78;;;3.08;;
65461;SDS011;53236;43.666;18.444;2023-10-09T06:51:16;4.38;;;2.97;;
65461;SDS011;53236;43.666;18.444;2023-10-09T06:54:05;6.72;;;2.50;;
65461;SDS011;53236;43.666;18.444;2023-10-09T06:56:39;7.28;;;3.53;;
65461;SDS011;53236;43.666;18.444;2023-10-09T06:59:17;4.90;;;3.10;;
65461;SDS011;53236;43.666;18.444;2023-10-09T07:01:49;4.40;;;3.38;;
65461;SDS011;53236;43.666;18.444;2023-10-09T07:04:36;5.90;;;3.33;;
65461;SDS011;53236;43.666;18.444;2023-10-09T07:07:02;5.15;;;2.75;;
65461;SDS011;53236;43.666;18.444;2023-10-09T07:09:32;5.95;;;3.40;;
65461;SDS011;53236;43.666;18.444;2023-10-09T07:12:10;7.63;;;2.80;;
65461;SDS011;53236;43.666;18.444;2023-10-09T07:14:45;6.43;;;3.33;;
65461;SDS011;53236;43.666;18.444;2023-10-09T07:17:11;4.88;;;2.70;;
65461;SDS011;53236;43.666;18.444;2023-10-09T07:19:56;6.45;;;3.13;;
65461;SDS011;53236;43.666;18.444;2023-10-09T07:22:40;4.10;;;2.97;;
65461;SDS011;53236;43.666;18.444;2023-10-09T07:25:27;7.28;;;2.65;;
65461;SDS011;53236;43.666;18.444;2023-10-09T07:27:57;4.32;;;2.70;;
65461;SDS011;53236;43.666;18.444;2023-10-09T07:30:25;6.38;;;3.10;;
65461;SDS011;53236;43.666;18.444;2023-10-09T07:32:54;6.55;;;3.20;;
65461;SDS011;53236;43.666;18.444;2023-10-09T07:35:36;5.43;;;3.03;;
65461;SDS011;53236;43.666;18.444;2023-10-09T07:38:11;5.13;;;3.00;;
65461;SDS011;53236;43.666;18.444;2023-10-09T07:40:44;6.43;;;3.25;;
65461;SDS011;53236;43.666;18.444;2023-10-09T07:43:20;6.82;;;3.47;;
65461;SDS011;53236;43.666;18.444;2023-10-09T07:46:16;6.88;;;3.42;;
65461;SDS011;53236;43.666;18.444;2023-10-09T07:49:16;7.25;;;3.25;;
65461;SDS011;53236;43.666;18.444;2023-10-09T07:51:49;5.22;;;2.60;;
65461;SDS011;53236;43.666;18.444;2023-10-09T07:54:17;5.82;;;2.92;;
65461;SDS011;53236;43.666;18.444;2023-10-09T07:56:57;5.60;;;2.03;;
65461;SDS011;53236;43.666;18.444;2023-10-09T07:59:34;4.93;;;2.28;;
65461;SDS011;53236;43.666;18.444;2023-10-09T08:02:06;5.85;;;2.42;;
65461;SDS011;53236;43.666;18.444;2023-10-09T08:04:38;5.50;;;2.28;;
65461;SDS011;53236;43.666;18.444;2023-10-09T08:07:14;4.60;;;1.63;;
65461;SDS011;53236;43.666;18.444;2023-10-09T08:09:59;6.03;;;1.73;;
65461;SDS011;53236;43.666;18.444;2023-10-09T08:12:44;7.05;;;1.70;;
65461;SDS011;53236;43.666;18.444;2023-10-09T08:15:16;4.55;;;1.90;;
65461;SDS011;53236;43.666;18.444;2023-10-09T08:17:52;10.63;;;2.50;;
65461;SDS011;53236;43.666;18.444;2023-10-09T08:20:43;6.22;;;2.65;;
65461;SDS011;53236;43.666;18.444;2023-10-09T08:23:21;7.00;;;2.20;;
65461;SDS011;53236;43.666;18.444;2023-10-09T08:26:15;6.32;;;2.40;;
65461;SDS011;53236;43.666;18.444;2023-10-09T08:28:54;6.18;;;1.88;;
65461;SDS011;53236;43.666;18.444;2023-10-09T08:31:39;5.47;;;2.60;;
65461;SDS011;53236;43.666;18.444;2023-10-09T08:34:14;6.13;;;2.45;;
65461;SDS011;53236;43.666;18.444;2023-10-09T08:36:49;5.45;;;1.70;;
65461;SDS011;53236;43.666;18.444;2023-10-09T08:39:20;5.28;;;1.92;;
65461;SDS011;53236;43.666;18.444;2023-10-09T08:41:54;3.72;;;1.60;;
65461;SDS011;53236;43.666;18.444;2023-10-09T08:44:24;5.47;;;1.77;;
65461;SDS011;53236;43.666;18.444;2023-10-09T08:46:54;11.15;;;2.15;;
65461;SDS011;53236;43.666;18.444;2023-10-09T08:49:22;8.73;;;1.65;;
65461;SDS011;53236;43.666;18.444;2023-10-09T08:51:50;6.00;;;2.00;;
65461;SDS011;53236;43.666;18.444;2023-10-09T08:54:18;6.20;;;1.85;;
65461;SDS011;53236;43.666;18.444;2023-10-09T08:56:47;5.45;;;1.80;;
65461;SDS011;53236;43.666;18.444;2023-10-09T08:59:16;5.45;;;2.00;;
65461;SDS011;53236;43.666;18.444;2023-10-09T09:01:46;5.75;;;1.95;;
65461;SDS011;53236;43.666;18.444;2023-10-09T09:04:38;6.55;;;1.70;;
65461;SDS011;53236;43.666;18.444;2023-10-09T09:07:03;9.80;;;2.25;;
65461;SDS011;53236;43.666;18.444;2023-10-09T09:09:31;7.10;;;2.40;;
65461;SDS011;53236;43.666;18.444;2023-10-09T09:11:58;5.65;;;2.28;;
65461;SDS011;53236;43.666;18.444;2023-10-09T09:14:35;5.50;;;2.13;;
65461;SDS011;53236;43.666;18.444;2023-10-09T09:17:02;7.35;;;2.10;;
65461;SDS011;53236;43.666;18.444;2023-10-09T09:19:32;6.72;;;2.13;;
65461;SDS011;53236;43.666;18.444;2023-10-09T09:22:03;4.82;;;2.00;;
65461;SDS011;53236;43.666;18.444;2023-10-09T09:24:38;7.85;;;1.95;;
65461;SDS011;53236;43.666;18.444;2023-10-09T09:27:04;8.10;;;1.90;;
65461;SDS011;53236;43.666;18.444;2023-10-09T09:29:43;11.90;;;2.17;;
65461;SDS011;53236;43.666;18.444;2023-10-09T09:32:19;8.85;;;2.42;;
65461;SDS011;53236;43.666;18.444;2023-10-09T09:35:00;16.42;;;2.85;;
65461;SDS011;53236;43.666;18.444;2023-10-09T09:37:29;11.13;;;2.60;;
65461;SDS011;53236;43.666;18.444;2023-10-09T09:40:17;7.75;;;2.13;;
65461;SDS011;53236;43.666;18.444;2023-10-09T09:42:58;7.95;;;2.40;;
65461;SDS011;53236;43.666;18.444;2023-10-09T09:45:34;9.80;;;2.60;;
65461;SDS011;53236;43.666;18.444;2023-10-09T09:48:02;15.95;;;3.25;;
65461;SDS011;53236;43.666;18.444;2023-10-09T09:50:31;7.25;;;2.90;;
65461;SDS011;53236;43.666;18.444;2023-10-09T09:52:58;13.55;;;2.60;;
65461;SDS011;53236;43.666;18.444;2023-10-09T09:55:28;12.60;;;2.70;;
65461;SDS011;53236;43.666;18.444;2023-10-09T09:57:58;11.77;;;2.53;;
65461;SDS011;53236;43.666;18.444;2023-10-09T10:00:28;12.27;;;2.55;;
65461;SDS011;53236;43.666;18.444;2023-10-09T10:03:14;11.32;;;2.88;;
65461;SDS011;53236;43.666;18.444;2023-10-09T10:05:58;13.77;;;3.50;;
65461;SDS011;53236;43.666;18.444;2023-10-09T10:08:26;11.02;;;3.05;;
65461;SDS011;53236;43.666;18.444;2023-10-09T10:10:58;14.98;;;3.28;;
65461;SDS011;53236;43.666;18.444;2023-10-09T10:16:08;17.05;;;2.63;;
65461;SDS011;53236;43.666;18.444;2023-10-09T10:21:32;12.25;;;3.20;;
65461;SDS011;53236;43.666;18.444;2023-10-09T10:27:35;23.40;;;3.80;;
65461;SDS011;53236;43.666;18.444;2023-10-09T10:35:20;15.13;;;3.05;;
65461;SDS011;53236;43.666;18.444;2023-10-09T10:38:00;12.57;;;3.38;;
65461;SDS011;53236;43.666;18.444;2023-10-09T10:40:40;14.65;;;2.95;;
65461;SDS011;53236;43.666;18.444;2023-10-09T10:43:17;17.75;;;3.13;;
65461;SDS011;53236;43.666;18.444;2023-10-09T10:46:12;16.35;;;3.50;;
65461;SDS011;53236;43.666;18.444;2023-10-09T10:48:40;14.25;;;3.15;;
65461;SDS011;53236;43.666;18.444;2023-10-09T10:51:11;19.00;;;3.80;;
65461;SDS011;53236;43.666;18.444;2023-10-09T10:53:49;15.95;;;3.55;;
65461;SDS011;53236;43.666;18.444;2023-10-09T10:56:17;15.05;;;3.00;;
65461;SDS011;53236;43.666;18.444;2023-10-09T10:58:53;20.38;;;4.07;;
65461;SDS011;53236;43.666;18.444;2023-10-09T11:01:34;16.80;;;3.72;;
65461;SDS011;53236;43.666;18.444;2023-10-09T11:04:25;17.40;;;3.45;;
65461;SDS011;53236;43.666;18.444;2023-10-09T11:06:58;18.13;;;3.38;;
65461;SDS011;53236;43.666;18.444;2023-10-09T11:09:49;16.55;;;3.53;;
65461;SDS011;53236;43.666;18.444;2023-10-09T11:15:29;19.23;;;3.72;;
65461;SDS011;53236;43.666;18.444;2023-10-09T11:18:12;30.20;;;3.53;;
65461;SDS011;53236;43.666;18.444;2023-10-09T11:20:48;16.70;;;3.72;;
65461;SDS011;53236;43.666;18.444;2023-10-09T11:26:16;19.27;;;3.20;;
65461;SDS011;53236;43.666;18.444;2023-10-09T11:29:08;29.60;;;3.40;;
65461;SDS011;53236;43.666;18.444;2023-10-09T11:32:19;15.48;;;3.40;;
65461;SDS011;53236;43.666;18.444;2023-10-09T11:34:51;19.30;;;3.08;;
65461;SDS011;53236;43.666;18.444;2023-10-09T11:37:34;16.52;;;3.03;;
65461;SDS011;53236;43.666;18.444;2023-10-09T11:40:31;14.43;;;3.28;;
65461;SDS011;53236;43.666;18.444;2023-10-09T11:43:44;21.23;;;3.78;;
65461;SDS011;53236;43.666;18.444;2023-10-09T11:46:17;17.80;;;3.85;;
65461;SDS011;53236;43.666;18.444;2023-10-09T11:49:22;19.10;;;3.38;;
65461;SDS011;53236;43.666;18.444;2023-10-09T11:52:09;18.85;;;3.47;;
65461;SDS011;53236;43.666;18.444;2023-10-09T11:54:37;22.83;;;3.97;;
65461;SDS011;53236;43.666;18.444;2023-10-09T11:57:03;13.50;;;3.13;;
65461;SDS011;53236;43.666;18.444;2023-10-09T11:59:31;14.18;;;3.22;;
65461;SDS011;53236;43.666;18.444;2023-10-09T12:02:06;16.85;;;3.53;;
65461;SDS011;53236;43.666;18.444;2023-10-09T12:04:39;19.55;;;3.88;;
65461;SDS011;53236;43.666;18.444;2023-10-09T12:07:08;19.20;;;4.28;;
65461;SDS011;53236;43.666;18.444;2023-10-09T12:09:36;20.83;;;4.10;;
65461;SDS011;53236;43.666;18.444;2023-10-09T12:12:03;17.45;;;3.58;;
65461;SDS011;53236;43.666;18.444;2023-10-09T12:14:30;17.80;;;3.90;;
65461;SDS011;53236;43.666;18.444;2023-10-09T12:17:03;21.90;;;3.70;;
65461;SDS011;53236;43.666;18.444;2023-10-09T12:19:36;17.77;;;3.92;;
65461;SDS011;53236;43.666;18.444;2023-10-09T12:22:04;22.35;;;4.25;;
65461;SDS011;53236;43.666;18.444;2023-10-09T12:24:36;18.85;;;3.78;;
65461;SDS011;53236;43.666;18.444;2023-10-09T12:27:02;19.23;;;3.10;;
65461;SDS011;53236;43.666;18.444;2023-10-09T12:42:56;22.65;;;4.75;;
65461;SDS011;53236;43.666;18.444;2023-10-09T12:45:25;24.27;;;3.88;;
65461;SDS011;53236;43.666;18.444;2023-10-09T12:47:55;19.92;;;3.97;;
65461;SDS011;53236;43.666;18.444;2023-10-09T12:50:24;15.05;;;3.50;;
65461;SDS011;53236;43.666;18.444;2023-10-09T12:52:57;15.23;;;3.47;;
65461;SDS011;53236;43.666;18.444;2023-10-09T12:55:34;20.42;;;3.28;;
65461;SDS011;53236;43.666;18.444;2023-10-09T12:58:10;14.50;;;3.95;;
65461;SDS011;53236;43.666;18.444;2023-10-09T13:00:40;13.45;;;2.80;;
65461;SDS011;53236;43.666;18.444;2023-10-09T13:03:13;19.25;;;3.92;;
65461;SDS011;53236;43.666;18.444;2023-10-09T13:05:46;15.57;;;3.60;;
65461;SDS011;53236;43.666;18.444;2023-10-09T13:08:23;15.18;;;3.65;;
65461;SDS011;53236;43.666;18.444;2023-10-09T13:11:03;19.17;;;3.78;;
65461;SDS011;53236;43.666;18.444;2023-10-09T13:13:36;15.35;;;3.55;;
65461;SDS011;53236;43.666;18.444;2023-10-09T13:16:09;19.15;;;3.60;;
65461;SDS011;53236;43.666;18.444;2023-10-09T13:18:40;17.77;;;3.30;;
65461;SDS011;53236;43.666;18.444;2023-10-09T13:21:36;12.10;;;3.33;;
65461;SDS011;53236;43.666;18.444;2023-10-09T13:24:05;15.57;;;3.17;;
65461;SDS011;53236;43.666;18.444;2023-10-09T13:26:41;17.50;;;3.60;;
65461;SDS011;53236;43.666;18.444;2023-10-09T13:29:10;11.68;;;2.78;;
65461;SDS011;53236;43.666;18.444;2023-10-09T13:31:36;18.55;;;3.00;;
65461;SDS011;53236;43.666;18.444;2023-10-09T13:34:06;18.75;;;3.17;;
65461;SDS011;53236;43.666;18.444;2023-10-09T13:36:35;17.17;;;3.30;;
65461;SDS011;53236;43.666;18.444;2023-10-09T13:39:03;14.10;;;3.47;;
65461;SDS011;53236;43.666;18.444;2023-10-09T13:41:49;14.52;;;2.72;;
65461;SDS011;53236;43.666;18.444;2023-10-09T13:44:32;16.00;;;3.80;;
65461;SDS011;53236;43.666;18.444;2023-10-09T13:49:26;14.00;;;2.83;;
65461;SDS011;53236;43.666;18.444;2023-10-09T13:51:55;14.52;;;2.83;;
65461;SDS011;53236;43.666;18.444;2023-10-09T13:54:22;13.00;;;3.70;;
65461;SDS011;53236;43.666;18.444;2023-10-09T13:56:57;17.23;;;3.05;;
65461;SDS011;53236;43.666;18.444;2023-10-09T13:59:29;16.92;;;3.90;;
65461;SDS011;53236;43.666;18.444;2023-10-09T14:01:55;14.27;;;3.22;;
65461;SDS011;53236;43.666;18.444;2023-10-09T14:04:23;21.65;;;3.83;;
65461;SDS011;53236;43.666;18.444;2023-10-09T14:06:50;21.55;;;3.45;;
65461;SDS011;53236;43.666;18.444;2023-10-09T14:09:22;15.80;;;3.70;;
65461;SDS011;53236;43.666;18.444;2023-10-09T14:12:10;17.08;;;4.68;;
65461;SDS011;53236;43.666;18.444;2023-10-09T14:14:37;14.20;;;4.22;;
65461;SDS011;53236;43.666;18.444;2023-10-09T14:17:12;12.30;;;2.97;;
65461;SDS011;53236;43.666;18.444;2023-10-09T14:19:49;18.77;;;4.28;;
65461;SDS011;53236;43.666;18.444;2023-10-09T14:22:20;12.90;;;3.45;;
65461;SDS011;53236;43.666;18.444;2023-10-09T14:24:49;9.52;;;2.72;;
65461;SDS011;53236;43.666;18.444;2023-10-09T14:27:25;12.55;;;3.38;;
65461;SDS011;53236;43.666;18.444;2023-10-09T14:29:52;12.88;;;3.38;;
65461;SDS011;53236;43.666;18.444;2023-10-09T14:32:24;12.98;;;2.78;;
65461;SDS011;53236;43.666;18.444;2023-10-09T14:35:08;18.17;;;3.13;;
65461;SDS011;53236;43.666;18.444;2023-10-09T14:37:40;11.60;;;3.10;;
65461;SDS011;53236;43.666;18.444;2023-10-09T14:40:07;14.20;;;3.20;;
65461;SDS011;53236;43.666;18.444;2023-10-09T14:42:41;14.50;;;3.50;;
65461;SDS011;53236;43.666;18.444;2023-10-09T14:45:10;14.02;;;2.70;;
65461;SDS011;53236;43.666;18.444;2023-10-09T14:47:41;15.38;;;3.55;;
65461;SDS011;53236;43.666;18.444;2023-10-09T14:50:07;21.48;;;3.72;;
65461;SDS011;53236;43.666;18.444;2023-10-09T14:52:34;15.13;;;3.22;;
65461;SDS011;53236;43.666;18.444;2023-10-09T14:55:04;20.00;;;3.35;;
65461;SDS011;53236;43.666;18.444;2023-10-09T14:57:34;14.07;;;3.72;;
65461;SDS011;53236;43.666;18.444;2023-10-09T15:00:00;13.95;;;3.60;;
65461;SDS011;53236;43.666;18.444;2023-10-09T15:02:32;17.40;;;3.42;;
65461;SDS011;53236;43.666;18.444;2023-10-09T15:04:58;11.02;;;3.00;;
65461;SDS011;53236;43.666;18.444;2023-10-09T15:07:24;11.98;;;4.00;;
65461;SDS011;53236;43.666;18.444;2023-10-09T15:09:50;11.05;;;4.05;;
65461;SDS011;53236;43.666;18.444;2023-10-09T15:12:16;13.73;;;3.70;;
65461;SDS011;53236;43.666;18.444;2023-10-09T15:14:42;17.10;;;4.03;;
65461;SDS011;53236;43.666;18.444;2023-10-09T15:17:10;13.88;;;5.70;;
65461;SDS011;53236;43.666;18.444;2023-10-09T15:19:36;17.15;;;5.45;;
65461;SDS011;53236;43.666;18.444;2023-10-09T15:22:02;13.63;;;3.85;;
65461;SDS011;53236;43.666;18.444;2023-10-09T15:24:33;13.23;;;4.28;;
65461;SDS011;53236;43.666;18.444;2023-10-09T15:26:59;16.60;;;5.05;;
65461;SDS011;53236;43.666;18.444;2023-10-09T15:29:26;17.98;;;4.90;;
65461;SDS011;53236;43.666;18.444;2023-10-09T15:32:00;16.08;;;4.50;;
65461;SDS011;53236;43.666;18.444;2023-10-09T15:34:35;13.80;;;4.28;;
65461;SDS011;53236;43.666;18.444;2023-10-09T15:37:00;18.48;;;4.80;;
65461;SDS011;53236;43.666;18.444;2023-10-09T15:39:28;15.65;;;4.03;;
65461;SDS011;53236;43.666;18.444;2023-10-09T15:41:55;17.80;;;3.90;;
65461;SDS011;53236;43.666;18.444;2023-10-09T15:44:22;13.98;;;3.10;;
65461;SDS011;53236;43.666;18.444;2023-10-09T15:46:50;20.27;;;3.65;;
65461;SDS011;53236;43.666;18.444;2023-10-09T15:49:22;12.38;;;3.25;;
65461;SDS011;53236;43.666;18.444;2023-10-09T15:51:48;13.93;;;3.10;;
65461;SDS011;53236;43.666;18.444;2023-10-09T15:54:13;15.57;;;3.38;;
65461;SDS011;53236;43.666;18.444;2023-10-09T15:56:44;10.05;;;3.30;;
65461;SDS011;53236;43.666;18.444;2023-10-09T15:59:10;15.60;;;5.60;;
65461;SDS011;53236;43.666;18.444;2023-10-09T16:01:37;14.93;;;5.28;;
65461;SDS011;53236;43.666;18.444;2023-10-09T16:04:08;19.67;;;6.70;;
65461;SDS011;53236;43.666;18.444;2023-10-09T16:06:36;23.23;;;6.72;;
65461;SDS011;53236;43.666;18.444;2023-10-09T16:09:06;24.15;;;8.15;;